Time;durP1;ratioP1;P1;durP2;ratioP2;P2;SDS_P1;SDS_P2;PMS_P1;PMS_P2;Temp;Humidity;BMP_temperature;BMP_pressure;BME280_temperature;BME280_humidity;BME280_pressure;Samples;Min_cycle;Max_cycle;Signal;HPM_P1;HPM_P2
2024/01/14 00:01:29;;;;;;;84.18;26.80;;;;;;;;;;5022313;28;20026;-69
2024/01/14 00:03:54;;;;;;;85.57;31.33;;;;;;;;;;5015315;28;20037;-69
2024/01/14 00:06:19;;;;;;;91.28;34.70;;;;;;;;;;5022597;28;20036;-69
2024/01/14 00:08:45;;;;;;;102.82;40.83;;;;;;;;;;5006955;28;20386;-69
2024/01/14 00:11:10;;;;;;;82.85;27.30;;;;;;;;;;5018906;28;20030;-69
2024/01/14 00:13:35;;;;;;;86.97;28.90;;;;;;;;;;5008958;28;20029;-69
2024/01/14 00:16:00;;;;;;;90.70;27.95;;;;;;;;;;5005785;28;20022;-69
2024/01/14 00:18:25;;;;;;;59.78;17.05;;;;;;;;;;5004747;28;20017;-69
2024/01/14 00:20:51;;;;;;;45.27;16.33;;;;;;;;;;5010923;28;20026;-69
2024/01/14 00:23:16;;;;;;;92.57;32.40;;;;;;;;;;5009367;28;20342;-69
2024/01/14 00:25:41;;;;;;;95.57;27.95;;;;;;;;;;5004625;28;20055;-69
2024/01/14 00:28:06;;;;;;;88.73;29.27;;;;;;;;;;5008850;28;20022;-69
2024/01/14 00:30:31;;;;;;;117.63;30.53;;;;;;;;;;5010208;28;20261;-69
2024/01/14 00:32:56;;;;;;;93.87;29.73;;;;;;;;;;5010791;28;20259;-69
2024/01/14 00:35:22;;;;;;;95.73;28.77;;;;;;;;;;5010438;28;20764;-69
2024/01/14 00:37:47;;;;;;;89.00;28.53;;;;;;;;;;5010994;28;20331;-69
2024/01/14 00:40:13;;;;;;;49.13;18.88;;;;;;;;;;5010484;28;20756;-69
2024/01/14 00:42:38;;;;;;;86.18;27.83;;;;;;;;;;5009962;28;20400;-69
2024/01/14 00:45:03;;;;;;;55.25;19.90;;;;;;;;;;5010949;28;20029;-69
2024/01/14 00:47:30;;;;;;;101.13;33.63;;;;;;;;;;5010918;28;20017;-69
2024/01/14 00:49:55;;;;;;;100.65;31.42;;;;;;;;;;5010653;28;20018;-69
2024/01/14 00:52:20;;;;;;;99.43;31.15;;;;;;;;;;5010283;28;20369;-69
2024/01/14 00:54:46;;;;;;;111.65;35.60;;;;;;;;;;5010802;28;20142;-69
2024/01/14 00:57:11;;;;;;;100.43;37.73;;;;;;;;;;5009971;28;20018;-69
2024/01/14 00:59:36;;;;;;;97.43;31.27;;;;;;;;;;5009524;28;20277;-69
2024/01/14 01:02:01;;;;;;;97.80;36.47;;;;;;;;;;5014399;28;20029;-69
2024/01/14 01:04:27;;;;;;;89.50;28.05;;;;;;;;;;5010194;28;20073;-69
2024/01/14 01:06:52;;;;;;;89.88;28.08;;;;;;;;;;5007214;28;20034;-69
2024/01/14 01:09:17;;;;;;;89.50;27.73;;;;;;;;;;5010369;28;20026;-69
2024/01/14 01:11:42;;;;;;;92.63;27.63;;;;;;;;;;5010465;28;20271;-69
2024/01/14 01:14:07;;;;;;;94.88;33.67;;;;;;;;;;5010467;28;20257;-69
2024/01/14 01:16:33;;;;;;;92.55;32.33;;;;;;;;;;5004919;28;20072;-69
2024/01/14 01:18:59;;;;;;;95.53;30.63;;;;;;;;;;5007804;28;20459;-69
2024/01/14 01:21:24;;;;;;;59.93;18.67;;;;;;;;;;5009681;28;20050;-69
2024/01/14 01:23:49;;;;;;;93.85;33.05;;;;;;;;;;5010557;28;20780;-69
2024/01/14 01:26:14;;;;;;;61.08;21.63;;;;;;;;;;5010081;28;20029;-69
2024/01/14 01:28:39;;;;;;;88.55;27.50;;;;;;;;;;5008047;28;20022;-69
2024/01/14 01:31:04;;;;;;;60.43;21.87;;;;;;;;;;5009277;28;20489;-70
2024/01/14 01:33:30;;;;;;;60.35;17.95;;;;;;;;;;5008896;28;20265;-69
2024/01/14 01:35:55;;;;;;;83.00;27.45;;;;;;;;;;5010316;28;20029;-69
2024/01/14 01:38:20;;;;;;;76.32;25.77;;;;;;;;;;5008478;28;20017;-69
2024/01/14 01:40:46;;;;;;;89.70;31.73;;;;;;;;;;5008796;28;20026;-70
2024/01/14 01:43:11;;;;;;;104.28;35.63;;;;;;;;;;5009381;28;20301;-69
2024/01/14 01:45:37;;;;;;;110.63;34.25;;;;;;;;;;5008877;28;20032;-69
2024/01/14 01:48:02;;;;;;;97.60;35.55;;;;;;;;;;5009030;28;20381;-69
2024/01/14 01:50:27;;;;;;;93.45;33.80;;;;;;;;;;5009297;28;20100;-69
2024/01/14 01:52:53;;;;;;;86.95;30.08;;;;;;;;;;5009495;28;20038;-68
2024/01/14 01:55:18;;;;;;;83.43;25.70;;;;;;;;;;5010055;28;20021;-68
2024/01/14 01:57:43;;;;;;;89.60;26.15;;;;;;;;;;5009315;28;20042;-68
2024/01/14 02:00:10;;;;;;;79.47;27.40;;;;;;;;;;5009618;28;20109;-68
2024/01/14 02:02:35;;;;;;;81.70;26.33;;;;;;;;;;5009249;28;20018;-68
2024/01/14 02:05:00;;;;;;;82.28;27.10;;;;;;;;;;5008410;28;20037;-68
2024/01/14 02:07:26;;;;;;;90.18;31.52;;;;;;;;;;5008472;28;20068;-68
2024/01/14 02:09:51;;;;;;;87.20;26.77;;;;;;;;;;5009552;28;20025;-68
2024/01/14 02:12:16;;;;;;;78.90;25.23;;;;;;;;;;5008382;28;20132;-68
2024/01/14 02:14:42;;;;;;;83.05;27.98;;;;;;;;;;5008031;28;20053;-68
2024/01/14 02:17:07;;;;;;;95.50;30.23;;;;;;;;;;5009238;28;20509;-69
2024/01/14 02:19:32;;;;;;;81.32;24.98;;;;;;;;;;5009983;28;20380;-66
2024/01/14 02:22:01;;;;;;;73.33;26.57;;;;;;;;;;5008771;28;20022;-67
2024/01/14 02:24:27;;;;;;;77.07;26.92;;;;;;;;;;5007142;28;20271;-67
2024/01/14 02:26:53;;;;;;;89.40;37.88;;;;;;;;;;5008661;28;20549;-68
2024/01/14 02:29:19;;;;;;;81.57;26.33;;;;;;;;;;5009044;28;20054;-70
2024/01/14 02:31:44;;;;;;;72.03;25.27;;;;;;;;;;5014736;28;20048;-67
2024/01/14 02:34:10;;;;;;;81.05;25.08;;;;;;;;;;5008917;28;20018;-67
2024/01/14 02:36:35;;;;;;;83.65;28.02;;;;;;;;;;5009217;28;20041;-67
2024/01/14 02:39:00;;;;;;;67.82;26.45;;;;;;;;;;5008113;28;20044;-67
2024/01/14 02:41:25;;;;;;;71.75;23.88;;;;;;;;;;5008027;28;20080;-68
2024/01/14 02:43:50;;;;;;;68.43;26.05;;;;;;;;;;5008944;28;20022;-67
2024/01/14 02:46:16;;;;;;;83.38;27.45;;;;;;;;;;5009189;28;20495;-68
2024/01/14 02:48:41;;;;;;;84.38;25.75;;;;;;;;;;5008505;28;20108;-68
2024/01/14 02:51:06;;;;;;;75.27;24.73;;;;;;;;;;5010326;28;20388;-68
2024/01/14 02:53:31;;;;;;;73.55;23.65;;;;;;;;;;5012308;28;20311;-68
2024/01/14 02:55:56;;;;;;;73.87;23.87;;;;;;;;;;5008671;28;20045;-68
2024/01/14 02:58:22;;;;;;;69.38;23.25;;;;;;;;;;5012035;28;20431;-67
2024/01/14 03:00:47;;;;;;;65.85;25.67;;;;;;;;;;5014638;28;20548;-67
2024/01/14 03:03:13;;;;;;;75.60;23.33;;;;;;;;;;5015290;28;20038;-68
2024/01/14 03:05:38;;;;;;;59.53;21.92;;;;;;;;;;5011598;28;20393;-68
2024/01/14 03:08:03;;;;;;;77.25;24.42;;;;;;;;;;5012336;28;20021;-68
2024/01/14 03:10:29;;;;;;;75.70;24.80;;;;;;;;;;5011069;28;20030;-68
2024/01/14 03:12:54;;;;;;;74.57;25.37;;;;;;;;;;5012577;28;20631;-67
2024/01/14 03:15:19;;;;;;;63.42;22.35;;;;;;;;;;5012321;28;20265;-68
2024/01/14 03:17:44;;;;;;;64.70;23.27;;;;;;;;;;5011831;28;20505;-68
2024/01/14 03:20:10;;;;;;;63.70;22.45;;;;;;;;;;5004571;28;20261;-68
2024/01/14 03:22:35;;;;;;;67.68;25.70;;;;;;;;;;5014530;28;20025;-68
2024/01/14 03:25:00;;;;;;;69.00;22.03;;;;;;;;;;5012378;28;20022;-68
2024/01/14 03:27:25;;;;;;;65.57;22.27;;;;;;;;;;5011368;28;20396;-68
2024/01/14 03:29:50;;;;;;;67.13;21.38;;;;;;;;;;5011284;28;20269;-68
2024/01/14 03:32:15;;;;;;;65.60;23.08;;;;;;;;;;5012223;28;20045;-67
2024/01/14 03:34:41;;;;;;;60.57;21.63;;;;;;;;;;5013769;28;20022;-68
2024/01/14 03:37:06;;;;;;;64.70;22.17;;;;;;;;;;5011120;28;20367;-68
2024/01/14 03:39:31;;;;;;;56.75;22.40;;;;;;;;;;5011556;28;20022;-68
2024/01/14 03:41:56;;;;;;;66.78;21.77;;;;;;;;;;5011789;28;20032;-68
2024/01/14 03:44:21;;;;;;;59.45;21.88;;;;;;;;;;5010233;28;20691;-69
2024/01/14 03:46:47;;;;;;;63.87;21.53;;;;;;;;;;5011740;28;20201;-69
2024/01/14 03:49:12;;;;;;;70.47;25.37;;;;;;;;;;5012016;28;20261;-69
2024/01/14 03:51:37;;;;;;;67.18;22.60;;;;;;;;;;5010858;28;20256;-69
2024/01/14 03:54:03;;;;;;;69.40;23.30;;;;;;;;;;5012334;28;20400;-69
2024/01/14 03:56:28;;;;;;;60.92;17.25;;;;;;;;;;5011663;28;20068;-69
2024/01/14 03:58:53;;;;;;;59.40;21.37;;;;;;;;;;5011002;28;20711;-69
2024/01/14 04:01:18;;;;;;;70.40;25.17;;;;;;;;;;5010862;28;20273;-69
2024/01/14 04:03:43;;;;;;;56.63;20.07;;;;;;;;;;5010739;28;20025;-69
2024/01/14 04:06:09;;;;;;;64.32;21.98;;;;;;;;;;5011710;28;20364;-69
2024/01/14 04:08:34;;;;;;;56.90;19.40;;;;;;;;;;5011196;28;20018;-69
2024/01/14 04:10:59;;;;;;;65.15;22.88;;;;;;;;;;5010874;28;20014;-69
2024/01/14 04:13:24;;;;;;;55.25;19.38;;;;;;;;;;5012005;28;20030;-69
2024/01/14 04:15:50;;;;;;;56.93;19.47;;;;;;;;;;5011423;28;20371;-69
2024/01/14 04:18:15;;;;;;;65.80;20.35;;;;;;;;;;5012032;28;20340;-69
2024/01/14 04:20:40;;;;;;;58.17;20.25;;;;;;;;;;5011181;28;20022;-69
2024/01/14 04:23:05;;;;;;;55.30;19.73;;;;;;;;;;5011233;28;20026;-69
2024/01/14 04:25:30;;;;;;;60.30;19.80;;;;;;;;;;5014115;28;20819;-69
2024/01/14 04:27:55;;;;;;;65.47;23.98;;;;;;;;;;5010402;28;20033;-69
2024/01/14 04:30:21;;;;;;;66.90;23.17;;;;;;;;;;5005866;28;20037;-69
2024/01/14 04:32:46;;;;;;;65.10;23.98;;;;;;;;;;5008790;28;20281;-69
2024/01/14 04:35:11;;;;;;;71.57;26.43;;;;;;;;;;5010026;28;20014;-69
2024/01/14 04:37:36;;;;;;;60.80;20.70;;;;;;;;;;5013201;28;20303;-68
2024/01/14 04:40:01;;;;;;;72.05;27.65;;;;;;;;;;5010231;28;20265;-68
2024/01/14 04:42:28;;;;;;;50.30;18.65;;;;;;;;;;5010114;28;20033;-68
2024/01/14 04:44:53;;;;;;;56.10;19.85;;;;;;;;;;5010526;28;20042;-68
2024/01/14 04:47:18;;;;;;;59.33;18.90;;;;;;;;;;5010812;28;20112;-69
2024/01/14 04:49:43;;;;;;;57.33;19.95;;;;;;;;;;5013938;28;20071;-69
2024/01/14 04:52:08;;;;;;;68.35;27.88;;;;;;;;;;5014893;28;20167;-69
2024/01/14 04:54:34;;;;;;;47.72;18.15;;;;;;;;;;5009393;28;20025;-69
2024/01/14 04:56:59;;;;;;;70.38;27.92;;;;;;;;;;5010968;28;20404;-68
2024/01/14 04:59:24;;;;;;;55.30;19.45;;;;;;;;;;5010991;28;20117;-68
2024/01/14 05:01:49;;;;;;;68.05;21.33;;;;;;;;;;5009343;28;20043;-68
2024/01/14 05:04:14;;;;;;;60.33;20.00;;;;;;;;;;5010164;28;20072;-69
2024/01/14 05:06:39;;;;;;;50.20;17.87;;;;;;;;;;5008932;28;20037;-68
2024/01/14 05:09:05;;;;;;;57.75;17.52;;;;;;;;;;5010556;28;20340;-68
2024/01/14 05:11:30;;;;;;;48.55;17.48;;;;;;;;;;5010447;28;20018;-69
2024/01/14 05:13:55;;;;;;;49.67;15.83;;;;;;;;;;5010420;28;20489;-68
2024/01/14 05:16:20;;;;;;;51.97;17.48;;;;;;;;;;5010047;28;20260;-69
2024/01/14 05:18:46;;;;;;;59.08;21.17;;;;;;;;;;5009724;28;20068;-69
2024/01/14 05:21:16;;;;;;;45.03;15.93;;;;;;;;;;5009663;28;20017;-69
2024/01/14 05:23:41;;;;;;;51.42;17.48;;;;;;;;;;5009982;28;20021;-69
2024/01/14 05:26:07;;;;;;;52.05;19.50;;;;;;;;;;5009902;28;20087;-69
2024/01/14 05:28:32;;;;;;;53.67;20.25;;;;;;;;;;5010104;28;20057;-69
2024/01/14 05:30:57;;;;;;;45.57;16.73;;;;;;;;;;5012741;28;20108;-69
2024/01/14 05:33:23;;;;;;;45.20;16.50;;;;;;;;;;5009771;28;20265;-69
2024/01/14 05:35:48;;;;;;;49.05;17.05;;;;;;;;;;5009714;28;20382;-69
2024/01/14 05:38:13;;;;;;;41.85;15.98;;;;;;;;;;5010163;28;20460;-69
2024/01/14 05:40:38;;;;;;;48.63;15.55;;;;;;;;;;5007241;28;20026;-69
2024/01/14 05:43:04;;;;;;;51.33;16.02;;;;;;;;;;5012548;28;20028;-69
2024/01/14 05:45:29;;;;;;;50.63;16.63;;;;;;;;;;5009545;28;20432;-69
2024/01/14 05:47:54;;;;;;;48.90;15.80;;;;;;;;;;5009944;28;20064;-69
2024/01/14 05:50:19;;;;;;;52.25;19.55;;;;;;;;;;5009647;28;20025;-69
2024/01/14 05:52:44;;;;;;;57.35;20.98;;;;;;;;;;5012075;28;20044;-69
2024/01/14 05:55:10;;;;;;;50.08;17.90;;;;;;;;;;5009888;28;20101;-69
2024/01/14 05:57:35;;;;;;;46.83;15.68;;;;;;;;;;5007943;28;20024;-69
2024/01/14 06:00:00;;;;;;;46.03;15.77;;;;;;;;;;5008615;28;20404;-69
2024/01/14 06:02:25;;;;;;;47.97;17.52;;;;;;;;;;5009623;28;20288;-69
2024/01/14 06:04:50;;;;;;;52.33;18.63;;;;;;;;;;5012705;28;20045;-69
2024/01/14 06:07:15;;;;;;;51.37;16.23;;;;;;;;;;5009757;28;20261;-69
2024/01/14 06:09:41;;;;;;;52.30;18.35;;;;;;;;;;5009582;28;20245;-69
2024/01/14 06:12:06;;;;;;;53.15;18.90;;;;;;;;;;5009439;28;20565;-69
2024/01/14 06:14:31;;;;;;;52.95;20.48;;;;;;;;;;5007619;28;20022;-69
2024/01/14 06:16:56;;;;;;;44.63;16.02;;;;;;;;;;5009284;28;20222;-69
2024/01/14 06:19:21;;;;;;;42.78;15.68;;;;;;;;;;5009507;28;20097;-69
2024/01/14 06:21:47;;;;;;;50.30;16.00;;;;;;;;;;5010459;28;20018;-69
2024/01/14 06:24:12;;;;;;;52.97;16.60;;;;;;;;;;5009379;28;20413;-69
2024/01/14 06:26:38;;;;;;;44.97;17.45;;;;;;;;;;5012469;28;20057;-69
2024/01/14 06:29:03;;;;;;;45.78;15.13;;;;;;;;;;5008781;28;20034;-69
2024/01/14 06:31:28;;;;;;;49.10;17.17;;;;;;;;;;5011591;28;20017;-69
2024/01/14 06:33:53;;;;;;;40.47;14.53;;;;;;;;;;5012998;28;20171;-69
2024/01/14 06:36:19;;;;;;;42.30;14.43;;;;;;;;;;5013011;28;20265;-69
2024/01/14 06:38:44;;;;;;;44.65;15.77;;;;;;;;;;5014469;28;20280;-69
2024/01/14 06:41:15;;;;;;;39.75;12.90;;;;;;;;;;5013096;28;20450;-69
2024/01/14 06:43:40;;;;;;;44.85;14.98;;;;;;;;;;5013064;28;20028;-69
2024/01/14 06:46:06;;;;;;;42.85;14.63;;;;;;;;;;5013101;28;20105;-69
2024/01/14 06:48:31;;;;;;;48.92;14.13;;;;;;;;;;5010661;28;20493;-69
2024/01/14 06:50:56;;;;;;;49.27;14.77;;;;;;;;;;5014605;28;20026;-69
2024/01/14 06:53:21;;;;;;;46.83;14.80;;;;;;;;;;5013254;28;20281;-69
2024/01/14 06:55:46;;;;;;;45.33;14.77;;;;;;;;;;5012800;28;20032;-69
2024/01/14 06:58:12;;;;;;;36.60;14.68;;;;;;;;;;5012637;28;20257;-69
2024/01/14 07:00:37;;;;;;;46.35;16.13;;;;;;;;;;5012406;28;20025;-69
2024/01/14 07:03:02;;;;;;;45.20;18.33;;;;;;;;;;5012784;28;20053;-69
2024/01/14 07:05:27;;;;;;;48.22;15.13;;;;;;;;;;5011371;28;20045;-69
2024/01/14 07:07:52;;;;;;;40.80;14.53;;;;;;;;;;5012610;28;20026;-69
2024/01/14 07:10:18;;;;;;;47.27;15.53;;;;;;;;;;5010802;28;20624;-69
2024/01/14 07:12:43;;;;;;;44.10;15.43;;;;;;;;;;5015676;28;20311;-69
2024/01/14 07:15:08;;;;;;;42.87;15.43;;;;;;;;;;5012241;28;20489;-69
2024/01/14 07:17:33;;;;;;;48.47;16.75;;;;;;;;;;5015611;28;20343;-69
2024/01/14 07:20:01;;;;;;;43.38;15.07;;;;;;;;;;5013268;28;20170;-69
2024/01/14 07:22:26;;;;;;;43.00;15.35;;;;;;;;;;5010091;28;20030;-69
2024/01/14 07:24:51;;;;;;;38.78;14.43;;;;;;;;;;5012196;28;20030;-69
2024/01/14 07:27:16;;;;;;;38.78;13.88;;;;;;;;;;5012196;28;20017;-69
2024/01/14 07:29:41;;;;;;;50.90;16.57;;;;;;;;;;5007459;28;20025;-69
2024/01/14 07:32:07;;;;;;;41.33;15.13;;;;;;;;;;5011627;28;20258;-69
2024/01/14 07:34:32;;;;;;;39.58;15.07;;;;;;;;;;5011177;28;20256;-69
2024/01/14 07:36:57;;;;;;;36.45;13.18;;;;;;;;;;5012183;28;20014;-69
2024/01/14 07:39:22;;;;;;;43.65;13.52;;;;;;;;;;5010422;28;20112;-69
2024/01/14 07:41:48;;;;;;;23.02;9.95;;;;;;;;;;5010443;28;20021;-69
2024/01/14 07:44:14;;;;;;;37.47;13.40;;;;;;;;;;5010701;28;20414;-69
2024/01/14 07:46:39;;;;;;;36.47;13.57;;;;;;;;;;5011966;28;20032;-69
2024/01/14 07:49:04;;;;;;;11.27;4.53;;;;;;;;;;5010343;28;20018;-69
2024/01/14 07:51:29;;;;;;;37.17;13.30;;;;;;;;;;5006928;28;20022;-69
2024/01/14 07:53:54;;;;;;;36.67;15.13;;;;;;;;;;5004934;28;20440;-69
2024/01/14 07:56:20;;;;;;;36.17;12.83;;;;;;;;;;5011572;28;20535;-69
2024/01/14 07:58:45;;;;;;;41.45;13.80;;;;;;;;;;5003098;28;20357;-69
2024/01/14 08:01:10;;;;;;;36.17;13.18;;;;;;;;;;5008845;28;20546;-69
2024/01/14 08:03:35;;;;;;;36.38;13.68;;;;;;;;;;5010627;28;20025;-69
2024/01/14 08:06:01;;;;;;;41.42;15.07;;;;;;;;;;5008229;28;20018;-69
2024/01/14 08:08:26;;;;;;;39.08;14.15;;;;;;;;;;5010537;28;20510;-69
2024/01/14 08:10:51;;;;;;;41.63;14.37;;;;;;;;;;5004660;28;20029;-69
2024/01/14 08:13:16;;;;;;;34.78;13.27;;;;;;;;;;5006392;28;20273;-69
2024/01/14 08:15:42;;;;;;;35.47;14.38;;;;;;;;;;5002477;28;20388;-69
2024/01/14 08:18:08;;;;;;;20.88;7.75;;;;;;;;;;5007994;28;20099;-69
2024/01/14 08:20:33;;;;;;;26.25;10.07;;;;;;;;;;5010772;28;20412;-69
2024/01/14 08:22:58;;;;;;;35.85;12.80;;;;;;;;;;5005007;28;20038;-69
2024/01/14 08:25:23;;;;;;;17.75;6.60;;;;;;;;;;5008181;28;20033;-69
2024/01/14 08:27:52;;;;;;;29.75;10.90;;;;;;;;;;5005844;28;20022;-69
2024/01/14 08:30:17;;;;;;;21.00;7.63;;;;;;;;;;5002749;28;20497;-69
2024/01/14 08:32:43;;;;;;;29.77;11.43;;;;;;;;;;5007713;28;20030;-69
2024/01/14 08:35:10;;;;;;;31.23;13.00;;;;;;;;;;5004942;28;20508;-69
2024/01/14 08:37:36;;;;;;;26.00;9.63;;;;;;;;;;5005381;28;20018;-69
2024/01/14 08:40:01;;;;;;;9.05;4.38;;;;;;;;;;5002585;28;20021;-69
2024/01/14 08:42:26;;;;;;;30.17;12.02;;;;;;;;;;5010029;28;20500;-69
2024/01/14 08:44:51;;;;;;;40.05;14.70;;;;;;;;;;5010541;28;20384;-69
2024/01/14 08:47:16;;;;;;;35.92;12.25;;;;;;;;;;5011004;28;20045;-69
2024/01/14 08:49:42;;;;;;;33.10;11.50;;;;;;;;;;5009469;28;20041;-69
2024/01/14 08:52:08;;;;;;;36.05;11.95;;;;;;;;;;5009625;28;20022;-69
2024/01/14 08:54:34;;;;;;;35.78;12.70;;;;;;;;;;5007395;28;20084;-69
2024/01/14 08:56:59;;;;;;;28.80;11.98;;;;;;;;;;5003041;28;20477;-69
2024/01/14 08:59:24;;;;;;;29.00;10.80;;;;;;;;;;5009752;28;20026;-69
2024/01/14 09:01:49;;;;;;;33.13;12.32;;;;;;;;;;5010798;28;20303;-69
2024/01/14 09:04:14;;;;;;;32.75;11.95;;;;;;;;;;5017489;28;20068;-69
2024/01/14 09:06:39;;;;;;;33.93;10.90;;;;;;;;;;5016071;28;20109;-69
2024/01/14 09:09:06;;;;;;;38.25;12.65;;;;;;;;;;5019814;28;20244;-69
2024/01/14 09:11:31;;;;;;;28.75;11.02;;;;;;;;;;5009201;28;20102;-69
2024/01/14 09:13:57;;;;;;;26.17;9.52;;;;;;;;;;5014727;28;20029;-69
2024/01/14 09:16:22;;;;;;;22.05;8.77;;;;;;;;;;5009843;28;20026;-69
2024/01/14 09:18:47;;;;;;;28.67;12.60;;;;;;;;;;5016125;28;20021;-69
2024/01/14 09:21:12;;;;;;;28.33;11.75;;;;;;;;;;5017744;28;20578;-69
2024/01/14 09:23:37;;;;;;;36.80;12.20;;;;;;;;;;5014811;28;20493;-69
2024/01/14 09:26:03;;;;;;;26.50;8.77;;;;;;;;;;5017793;28;20092;-69
2024/01/14 09:28:28;;;;;;;29.80;10.63;;;;;;;;;;5011845;28;20104;-69
2024/01/14 09:30:53;;;;;;;36.42;12.88;;;;;;;;;;5012090;28;20017;-69
2024/01/14 09:33:18;;;;;;;35.42;11.73;;;;;;;;;;5013386;28;20476;-69
2024/01/14 09:35:44;;;;;;;33.67;12.73;;;;;;;;;;5016956;28;20061;-69
2024/01/14 09:38:09;;;;;;;30.85;11.73;;;;;;;;;;5011102;28;20040;-69
2024/01/14 09:40:37;;;;;;;42.42;12.18;;;;;;;;;;5009771;28;20136;-69
2024/01/14 09:43:04;;;;;;;27.95;11.75;;;;;;;;;;5005997;28;20556;-69
2024/01/14 09:45:30;;;;;;;42.15;15.15;;;;;;;;;;5006347;28;20017;-69
2024/01/14 09:47:56;;;;;;;36.15;12.02;;;;;;;;;;5017607;28;20033;-69
2024/01/14 09:50:21;;;;;;;33.92;12.13;;;;;;;;;;5009380;28;20022;-69
2024/01/14 09:52:46;;;;;;;24.50;10.05;;;;;;;;;;5011266;28;20025;-69
2024/01/14 09:55:12;;;;;;;24.52;10.35;;;;;;;;;;5015885;28;20022;-69
2024/01/14 09:57:39;;;;;;;35.22;12.30;;;;;;;;;;5012009;28;20064;-69
2024/01/14 10:00:05;;;;;;;18.25;5.70;;;;;;;;;;5004758;28;20022;-69
2024/01/14 10:02:32;;;;;;;17.58;6.97;;;;;;;;;;5004772;28;20057;-68
2024/01/14 10:04:58;;;;;;;23.92;8.10;;;;;;;;;;5015479;28;20029;-69
2024/01/14 10:07:24;;;;;;;21.98;8.50;;;;;;;;;;5009742;28;20101;-69
2024/01/14 10:09:50;;;;;;;14.90;7.05;;;;;;;;;;5009571;28;20048;-69
2024/01/14 10:12:15;;;;;;;15.30;7.55;;;;;;;;;;5014627;28;20022;-69
2024/01/14 10:14:40;;;;;;;18.17;6.40;;;;;;;;;;5012804;28;20084;-69
2024/01/14 10:17:06;;;;;;;14.73;5.27;;;;;;;;;;5010518;28;20045;-69
2024/01/14 10:19:31;;;;;;;22.55;8.15;;;;;;;;;;5004844;28;20260;-69
2024/01/14 10:21:57;;;;;;;7.32;4.30;;;;;;;;;;5009337;28;20037;-69
2024/01/14 10:24:22;;;;;;;17.30;7.53;;;;;;;;;;5005259;28;20030;-69
2024/01/14 10:26:51;;;;;;;12.68;5.63;;;;;;;;;;5008365;28;20018;-69
2024/01/14 10:29:17;;;;;;;19.70;8.10;;;;;;;;;;5005361;28;20030;-69
2024/01/14 10:31:42;;;;;;;22.55;7.60;;;;;;;;;;5007073;28;20137;-69
2024/01/14 10:34:08;;;;;;;18.85;8.25;;;;;;;;;;5008679;28;20026;-69
2024/01/14 10:36:33;;;;;;;19.42;7.50;;;;;;;;;;5009793;28;20089;-69
2024/01/14 10:39:02;;;;;;;22.35;9.20;;;;;;;;;;5008798;28;20113;-69
2024/01/14 10:41:27;;;;;;;9.57;2.55;;;;;;;;;;5008770;28;20017;-69
2024/01/14 10:43:52;;;;;;;18.65;7.57;;;;;;;;;;5008937;28;20030;-69
2024/01/14 10:46:17;;;;;;;20.58;7.43;;;;;;;;;;5000015;28;20023;-69
2024/01/14 10:48:44;;;;;;;4.43;2.25;;;;;;;;;;5007755;28;20539;-69
2024/01/14 10:51:10;;;;;;;9.82;4.10;;;;;;;;;;5008531;28;20029;-69
2024/01/14 10:53:55;;;;;;;21.63;9.13;;;;;;;;;;5008971;28;20507;-69
2024/01/14 10:56:24;;;;;;;18.13;7.70;;;;;;;;;;5007134;28;20079;-69
2024/01/14 10:58:51;;;;;;;11.68;4.97;;;;;;;;;;5006813;28;20037;-69
2024/01/14 11:01:17;;;;;;;9.68;3.95;;;;;;;;;;5005217;28;20018;-69
2024/01/14 11:03:43;;;;;;;21.58;8.50;;;;;;;;;;5005149;28;20022;-69
2024/01/14 11:06:09;;;;;;;24.45;9.20;;;;;;;;;;5007536;28;20482;-69
2024/01/14 11:08:36;;;;;;;10.60;5.53;;;;;;;;;;5008838;28;20024;-69
2024/01/14 11:11:01;;;;;;;16.02;6.85;;;;;;;;;;5006852;28;20030;-69
2024/01/14 11:13:47;;;;;;;24.40;9.90;;;;;;;;;;5005726;28;20440;-69
2024/01/14 11:16:22;;;;;;;20.70;7.30;;;;;;;;;;5006588;28;20058;-69
2024/01/14 11:18:56;;;;;;;21.13;8.73;;;;;;;;;;5010319;28;20022;-69
2024/01/14 11:21:30;;;;;;;28.45;11.82;;;;;;;;;;5008510;28;20045;-69
2024/01/14 11:23:57;;;;;;;36.78;13.43;;;;;;;;;;5012287;28;20049;-69
2024/01/14 11:26:24;;;;;;;27.60;12.05;;;;;;;;;;5011644;28;20028;-69
2024/01/14 11:28:49;;;;;;;25.88;10.68;;;;;;;;;;5008631;28;20557;-69
2024/01/14 11:31:15;;;;;;;25.73;9.82;;;;;;;;;;5005750;28;20106;-69
2024/01/14 11:33:42;;;;;;;28.63;10.68;;;;;;;;;;5011785;28;20472;-69
2024/01/14 11:36:08;;;;;;;24.13;10.00;;;;;;;;;;5012028;28;20109;-69
2024/01/14 11:38:34;;;;;;;30.60;11.63;;;;;;;;;;5011705;28;20445;-69
2024/01/14 11:41:19;;;;;;;29.70;9.88;;;;;;;;;;5011608;28;20022;-69
2024/01/14 11:43:45;;;;;;;28.33;10.27;;;;;;;;;;5009165;28;20497;-69
2024/01/14 11:46:30;;;;;;;21.58;9.13;;;;;;;;;;5010800;28;20390;-69
2024/01/14 11:48:55;;;;;;;19.73;8.18;;;;;;;;;;5009823;28;20034;-69
2024/01/14 11:51:21;;;;;;;20.13;7.28;;;;;;;;;;5011467;28;20010;-69
2024/01/14 11:53:46;;;;;;;11.07;5.13;;;;;;;;;;5011805;28;20109;-69
2024/01/14 11:56:11;;;;;;;21.20;7.10;;;;;;;;;;5009611;28;20040;-69
2024/01/14 11:58:36;;;;;;;16.35;5.30;;;;;;;;;;5016348;28;20025;-68
2024/01/14 12:01:02;;;;;;;8.68;4.78;;;;;;;;;;5014459;28;20022;-68
2024/01/14 12:03:27;;;;;;;17.48;7.07;;;;;;;;;;5011074;28;20030;-68
2024/01/14 12:05:59;;;;;;;15.57;6.13;;;;;;;;;;5009983;28;20108;-68
2024/01/14 12:08:25;;;;;;;13.57;4.70;;;;;;;;;;5010531;28;20026;-68
2024/01/14 12:10:50;;;;;;;12.80;4.75;;;;;;;;;;5010835;28;20025;-70
2024/01/14 12:13:16;;;;;;;14.05;3.92;;;;;;;;;;5011710;28;20018;-69
2024/01/14 12:15:41;;;;;;;13.15;5.32;;;;;;;;;;5012587;28;20018;-69
2024/01/14 12:18:07;;;;;;;7.85;2.85;;;;;;;;;;5009843;28;20029;-69
2024/01/14 12:20:32;;;;;;;8.48;3.50;;;;;;;;;;5011511;28;20492;-69
2024/01/14 12:22:59;;;;;;;16.55;5.57;;;;;;;;;;5010874;28;20037;-69
2024/01/14 12:25:24;;;;;;;13.32;5.70;;;;;;;;;;5010857;28;20046;-69
2024/01/14 12:27:49;;;;;;;17.67;7.55;;;;;;;;;;5011499;28;20064;-69
2024/01/14 12:30:30;;;;;;;23.08;6.80;;;;;;;;;;5005783;28;20029;-69
2024/01/14 12:32:55;;;;;;;22.20;7.50;;;;;;;;;;5011248;28;20030;-69
2024/01/14 12:35:24;;;;;;;12.60;6.03;;;;;;;;;;5010763;28;20021;-69
2024/01/14 12:37:50;;;;;;;15.80;5.55;;;;;;;;;;5010923;28;20096;-69
2024/01/14 12:40:16;;;;;;;20.75;6.78;;;;;;;;;;5008931;28;20025;-69
2024/01/14 12:42:41;;;;;;;20.85;6.68;;;;;;;;;;5010334;28;20034;-69
2024/01/14 12:45:06;;;;;;;20.55;7.07;;;;;;;;;;5010282;28;20450;-69
2024/01/14 12:47:31;;;;;;;15.48;7.65;;;;;;;;;;5009966;28;20022;-69
2024/01/14 12:49:56;;;;;;;10.90;4.55;;;;;;;;;;5009260;28;20026;-69
2024/01/14 12:52:22;;;;;;;16.55;6.63;;;;;;;;;;5008761;28;20563;-69
2024/01/14 12:54:50;;;;;;;19.10;8.52;;;;;;;;;;5006485;28;20393;-70
2024/01/14 12:57:15;;;;;;;11.15;5.15;;;;;;;;;;5005093;28;20481;-70
2024/01/14 12:59:40;;;;;;;15.27;7.53;;;;;;;;;;5010024;28;20021;-70
2024/01/14 13:02:05;;;;;;;16.38;6.97;;;;;;;;;;5008827;28;20543;-70
2024/01/14 13:04:32;;;;;;;7.70;3.72;;;;;;;;;;5009041;28;20087;-70
2024/01/14 13:06:57;;;;;;;17.75;6.32;;;;;;;;;;5008810;28;20155;-70
2024/01/14 13:09:22;;;;;;;16.33;8.63;;;;;;;;;;5003365;28;20105;-70
2024/01/14 13:11:47;;;;;;;15.73;6.63;;;;;;;;;;5004852;28;20029;-70
2024/01/14 13:14:13;;;;;;;5.47;2.88;;;;;;;;;;5000941;28;20022;-70
2024/01/14 13:16:38;;;;;;;3.13;1.63;;;;;;;;;;5006492;28;20489;-70
2024/01/14 13:19:03;;;;;;;18.80;7.47;;;;;;;;;;5008502;28;20033;-70
2024/01/14 13:21:29;;;;;;;16.55;5.47;;;;;;;;;;5006157;28;20034;-70
2024/01/14 13:23:54;;;;;;;22.20;8.52;;;;;;;;;;5002095;28;20022;-70
2024/01/14 13:26:19;;;;;;;15.17;6.17;;;;;;;;;;5004960;28;20117;-70
2024/01/14 13:28:44;;;;;;;12.80;6.45;;;;;;;;;;5000672;28;20268;-69
2024/01/14 13:31:09;;;;;;;17.90;7.97;;;;;;;;;;5005324;28;20034;-70
2024/01/14 13:33:35;;;;;;;19.52;7.93;;;;;;;;;;5007588;28;20021;-70
2024/01/14 13:36:00;;;;;;;13.52;5.00;;;;;;;;;;5008175;28;20393;-70
2024/01/14 13:38:25;;;;;;;13.52;4.50;;;;;;;;;;5009178;28;20071;-70
2024/01/14 13:40:50;;;;;;;16.13;6.80;;;;;;;;;;5004636;28;20108;-70
2024/01/14 13:43:16;;;;;;;9.57;3.70;;;;;;;;;;5002811;28;20292;-70
2024/01/14 13:45:41;;;;;;;9.73;5.03;;;;;;;;;;5005200;28;20017;-70
2024/01/14 13:48:06;;;;;;;16.80;6.25;;;;;;;;;;5004873;28;20084;-70
2024/01/14 13:50:31;;;;;;;17.42;6.30;;;;;;;;;;5004672;28;20018;-70
2024/01/14 13:52:57;;;;;;;9.07;3.90;;;;;;;;;;5007532;28;20080;-70
2024/01/14 13:55:22;;;;;;;14.23;5.95;;;;;;;;;;5008566;28;20026;-70
2024/01/14 13:57:49;;;;;;;7.28;3.58;;;;;;;;;;5002394;28;20025;-70
2024/01/14 14:00:14;;;;;;;15.20;6.97;;;;;;;;;;5006176;28;20029;-70
2024/01/14 14:02:39;;;;;;;11.32;5.60;;;;;;;;;;5003355;28;20033;-70
2024/01/14 14:05:05;;;;;;;16.92;7.57;;;;;;;;;;5007662;28;20026;-70
2024/01/14 14:07:30;;;;;;;8.70;3.83;;;;;;;;;;5005940;28;20022;-70
2024/01/14 14:09:55;;;;;;;16.67;6.80;;;;;;;;;;5005607;28;20025;-70
2024/01/14 14:12:21;;;;;;;19.20;7.72;;;;;;;;;;5006708;28;20011;-70